Time;durP1;ratioP1;P1;durP2;ratioP2;P2;SDS_P1;SDS_P2;PMS_P1;PMS_P2;Temp;Humidity;BMP_temperature;BMP_pressure;BME280_temperature;BME280_humidity;BME280_pressure;Samples;Min_cycle;Max_cycle;Signal;HPM_P1;HPM_P2
2023/03/14 00:00:50;;;;;;;1.85;1.75;;;;;;;-0.57;71.37;99411.53;4996335;28;20053;-75
2023/03/14 00:03:16;;;;;;;3.72;2.10;;;;;;;-0.66;71.57;99406.59;4994939;28;20069;-75
2023/03/14 00:05:41;;;;;;;3.15;2.53;;;;;;;-0.64;71.73;99420.53;4994756;28;20482;-76
2023/03/14 00:08:07;;;;;;;2.75;2.45;;;;;;;-0.63;71.41;99422.25;4995836;28;20199;-76
2023/03/14 00:10:36;;;;;;;4.75;2.63;;;;;;;-0.63;71.10;99417.00;4994631;28;20507;-75
2023/03/14 00:13:02;;;;;;;2.93;2.57;;;;;;;-0.80;71.07;99423.66;4978569;28;20042;-75
2023/03/14 00:15:27;;;;;;;2.55;2.35;;;;;;;-0.67;71.15;99431.16;5011010;28;20049;-74
2023/03/14 00:17:53;;;;;;;2.92;2.60;;;;;;;-0.70;71.10;99436.50;4995842;28;20050;-75
2023/03/14 00:20:19;;;;;;;2.00;1.80;;;;;;;-0.78;71.00;99445.47;5010083;28;20050;-75
2023/03/14 00:22:45;;;;;;;2.85;2.40;;;;;;;-0.82;71.24;99451.72;4978140;28;20145;-75
2023/03/14 00:25:11;;;;;;;3.20;2.90;;;;;;;-0.83;71.57;99450.03;4978228;28;20477;-76
2023/03/14 00:27:38;;;;;;;3.00;2.63;;;;;;;-0.83;71.56;99447.41;4995864;28;20118;-76
2023/03/14 00:30:07;;;;;;;2.83;2.53;;;;;;;-0.88;71.88;99454.53;4994390;28;20050;-75
2023/03/14 00:32:33;;;;;;;3.30;3.00;;;;;;;-0.93;72.24;99459.09;4995843;28;20042;-76
2023/03/14 00:35:00;;;;;;;5.78;3.15;;;;;;;-0.85;72.41;99466.72;4995592;28;20104;-77
2023/03/14 00:37:27;;;;;;;3.80;3.05;;;;;;;-0.86;72.40;99457.97;4994159;28;20052;-77
2023/03/14 00:39:53;;;;;;;3.72;3.17;;;;;;;-0.82;72.23;99474.50;4994274;28;20070;-76
2023/03/14 00:42:19;;;;;;;5.43;3.50;;;;;;;-0.94;72.55;99470.50;4994486;28;20158;-76
2023/03/14 00:44:44;;;;;;;3.38;2.92;;;;;;;-0.99;73.14;99477.63;4995177;28;20233;-76
2023/03/14 00:47:10;;;;;;;3.63;3.20;;;;;;;-1.08;73.41;99485.78;4994013;28;20133;-76
2023/03/14 00:49:36;;;;;;;2.97;2.72;;;;;;;-1.05;73.17;99488.34;5010200;28;20068;-75
2023/03/14 00:52:02;;;;;;;4.13;2.97;;;;;;;-1.08;73.04;99483.16;4995242;28;20469;-74
2023/03/14 00:54:28;;;;;;;3.50;3.17;;;;;;;-1.04;73.70;99479.53;4995218;28;20038;-74
2023/03/14 00:56:54;;;;;;;9.50;3.22;;;;;;;-1.09;73.41;99486.69;4994108;28;20050;-76
2023/03/14 00:59:19;;;;;;;3.17;2.88;;;;;;;-1.23;73.93;99495.84;4994147;28;20141;-75
2023/03/14 01:01:45;;;;;;;2.53;2.25;;;;;;;-1.22;73.83;99496.69;4993736;28;20453;-74
2023/03/14 01:04:12;;;;;;;4.07;3.28;;;;;;;-1.35;74.50;99484.88;4993522;28;20042;-75
2023/03/14 01:06:39;;;;;;;4.07;3.40;;;;;;;-1.31;74.30;99478.63;4994674;28;20401;-77
2023/03/14 01:09:04;;;;;;;4.15;3.22;;;;;;;-1.28;74.78;99503.00;4978054;28;20054;-75
2023/03/14 01:11:33;;;;;;;3.85;3.45;;;;;;;-1.26;74.18;99498.53;5009820;28;20042;-75
2023/03/14 01:14:00;;;;;;;3.95;3.47;;;;;;;-1.29;74.25;99500.41;4993526;28;20061;-75
2023/03/14 01:16:29;;;;;;;3.07;2.80;;;;;;;-1.33;74.90;99520.59;4995725;28;20046;-76
2023/03/14 01:18:55;;;;;;;4.80;3.20;;;;;;;-1.36;75.08;99514.59;4993874;28;20125;-76
2023/03/14 01:21:28;;;;;;;3.78;3.22;;;;;;;-1.41;75.27;99522.59;4993499;28;20073;-76
2023/03/14 01:23:56;;;;;;;5.85;3.55;;;;;;;-1.50;75.18;99523.72;4993611;28;20037;-77
2023/03/14 01:26:24;;;;;;;4.97;3.28;;;;;;;-1.61;75.78;99535.41;4993415;28;20124;-75
2023/03/14 01:28:53;;;;;;;4.05;3.00;;;;;;;-1.66;75.82;99543.38;4994307;28;20050;-75
2023/03/14 01:31:19;;;;;;;3.30;3.00;;;;;;;-1.72;76.02;99544.41;4993640;28;20116;-73
2023/03/14 01:33:46;;;;;;;3.30;2.90;;;;;;;-1.74;76.26;99546.19;4993983;28;20505;-76
2023/03/14 01:36:12;;;;;;;3.00;2.70;;;;;;;-1.81;76.28;99557.75;4992930;28;20045;-76
2023/03/14 01:38:40;;;;;;;4.57;3.70;;;;;;;-1.86;76.31;99554.41;4993006;28;20054;-75
2023/03/14 01:41:12;;;;;;;3.75;3.45;;;;;;;-1.86;75.89;99561.41;5009359;28;20050;-75
2023/03/14 01:43:38;;;;;;;4.05;3.30;;;;;;;-1.88;75.95;99573.66;4992806;28;20046;-76
2023/03/14 01:46:03;;;;;;;4.07;3.50;;;;;;;-1.94;75.28;99579.94;4994022;28;20485;-77
2023/03/14 01:48:41;;;;;;;4.18;3.60;;;;;;;-1.93;75.33;99578.16;4992462;28;20175;-76
2023/03/14 01:51:11;;;;;;;3.47;2.92;;;;;;;-2.06;74.80;99582.88;4976687;28;20104;-76
2023/03/14 01:53:41;;;;;;;4.10;2.30;;;;;;;-2.15;74.45;99588.31;4976574;28;20038;-74
2023/03/14 01:56:07;;;;;;;;;;;;;;;-2.21;74.46;99591.97;4976879;28;20105;-74
2023/03/14 01:58:37;;;;;;;2.85;2.60;;;;;;;-2.31;73.83;99604.41;4993729;28;19961;-76
2023/03/14 02:01:04;;;;;;;2.55;2.33;;;;;;;-2.42;73.16;99603.78;4976264;28;20038;-75
2023/03/14 02:03:37;;;;;;;3.50;2.20;;;;;;;-2.42;73.19;99605.56;4960344;28;20070;-76
2023/03/14 02:06:08;;;;;;;2.47;2.22;;;;;;;-2.53;72.57;99618.88;4960451;28;20133;-77
2023/03/14 02:08:38;;;;;;;3.25;2.83;;;;;;;-2.54;72.04;99627.63;4971093;28;20047;-76
2023/03/14 02:11:08;;;;;;;2.95;2.60;;;;;;;-2.64;71.55;99620.88;4953638;29;20043;-76
2023/03/14 02:13:46;;;;;;;3.53;2.75;;;;;;;-2.70;71.24;99625.34;4953533;29;20070;-76
2023/03/14 02:16:32;;;;;;;3.00;2.50;;;;;;;-2.70;71.08;99622.75;4953649;29;20397;-76
2023/03/14 02:19:21;;;;;;;2.53;2.30;;;;;;;-2.80;70.78;99631.66;4954974;28;20454;-80
2023/03/14 02:22:17;;;;;;;4.15;2.53;;;;;;;-2.88;70.69;99633.59;4948587;28;20487;-77
2023/03/14 02:24:58;;;;;;;2.78;2.47;;;;;;;-2.89;70.57;99639.72;4953586;29;20069;-79
2023/03/14 02:27:23;;;;;;;2.92;2.40;;;;;;;-2.83;70.67;99639.59;4953157;28;20058;-77
2023/03/14 02:29:53;;;;;;;4.28;2.95;;;;;;;-2.84;70.85;99639.63;4953290;29;20043;-82
2023/03/14 02:32:21;;;;;;;2.83;2.47;;;;;;;-2.93;69.93;99648.53;4937240;29;20082;-76
2023/03/14 02:34:52;;;;;;;3.38;2.60;;;;;;;-3.01;69.96;99655.66;4921556;29;20554;-77
2023/03/14 02:37:21;;;;;;;2.03;1.90;;;;;;;-3.01;69.62;99655.66;4953388;29;20498;-77
2023/03/14 02:39:49;;;;;;;3.47;2.63;;;;;;;-3.10;69.48;99645.38;4953157;28;20146;-76
2023/03/14 02:42:16;;;;;;;2.80;2.55;;;;;;;-3.09;69.76;99647.97;4921328;28;20286;-76
2023/03/14 02:44:51;;;;;;;2.40;2.20;;;;;;;-3.10;69.89;99661.06;4955591;29;20043;-77
2023/03/14 02:47:22;;;;;;;3.10;2.58;;;;;;;-3.11;69.31;99661.97;4939040;29;20133;-77
2023/03/14 02:49:48;;;;;;;2.63;2.42;;;;;;;-3.20;69.24;99669.09;4955563;28;20043;-76
2023/03/14 02:52:14;;;;;;;4.85;3.10;;;;;;;-3.24;69.30;99675.25;4925490;29;20039;-75
2023/03/14 02:54:39;;;;;;;2.58;2.10;;;;;;;-3.37;69.51;99658.09;4956673;29;20051;-81
2023/03/14 02:57:06;;;;;;;2.13;1.90;;;;;;;-3.48;69.35;99660.03;4941961;29;20039;-78
2023/03/14 02:59:32;;;;;;;2.63;2.42;;;;;;;-3.41;69.59;99672.09;4941191;29;20055;-76
2023/03/14 03:02:05;;;;;;;3.10;2.85;;;;;;;-3.33;69.73;99675.44;4942729;29;20047;-78
2023/03/14 03:04:31;;;;;;;4.63;2.47;;;;;;;-3.01;70.60;99676.56;4940946;29;20510;-79
2023/03/14 03:06:57;;;;;;;3.65;2.72;;;;;;;-3.11;69.02;99681.13;4958029;28;20043;-76
2023/03/14 03:09:23;;;;;;;6.20;2.45;;;;;;;-3.19;68.43;99689.13;4940854;29;20074;-77
2023/03/14 03:11:51;;;;;;;2.65;1.90;;;;;;;-3.29;68.92;99694.53;4940372;29;20047;-78
2023/03/14 03:14:20;;;;;;;1.88;1.60;;;;;;;-3.32;68.82;99697.22;4941421;29;20051;-80
2023/03/14 03:16:46;;;;;;;1.65;1.50;;;;;;;-3.36;68.68;99690.31;4924699;29;20117;-78
2023/03/14 03:19:13;;;;;;;3.22;2.30;;;;;;;-3.38;69.38;99682.50;4959379;28;20050;-77
2023/03/14 03:21:42;;;;;;;5.05;2.80;;;;;;;-3.38;69.21;99694.72;4943150;28;20078;-78
2023/03/14 03:24:11;;;;;;;2.35;2.15;;;;;;;-3.51;69.55;99687.06;4975635;28;20054;-76
2023/03/14 03:26:37;;;;;;;5.15;2.30;;;;;;;-3.47;69.37;99693.97;4972566;28;20047;-78
2023/03/14 03:29:06;;;;;;;2.65;2.38;;;;;;;-3.48;69.48;99702.72;4957043;28;20407;-76
2023/03/14 03:31:32;;;;;;;2.05;1.85;;;;;;;-3.56;69.26;99708.97;4956673;29;20051;-78
2023/03/14 03:33:58;;;;;;;1.60;1.50;;;;;;;-3.60;69.70;99702.94;4956096;29;20130;-79
2023/03/14 03:36:25;;;;;;;3.05;1.90;;;;;;;-3.60;69.54;99712.53;4940505;29;20537;-79
2023/03/14 03:38:52;;;;;;;1.83;1.73;;;;;;;-3.67;69.37;99717.84;4956329;29;20050;-76
2023/03/14 03:41:18;;;;;;;2.13;1.90;;;;;;;-3.74;69.81;99710.13;4957548;28;20212;-77
2023/03/14 03:43:43;;;;;;;2.50;2.17;;;;;;;-3.74;69.39;99721.44;4939838;29;20068;-77
2023/03/14 03:46:12;;;;;;;2.42;2.22;;;;;;;-3.78;69.91;99719.75;4970504;28;20093;-79
2023/03/14 03:48:38;;;;;;;3.88;3.00;;;;;;;-3.77;69.83;99726.69;4981849;28;20050;-78
2023/03/14 03:51:05;;;;;;;3.85;2.83;;;;;;;-3.66;69.96;99736.97;4994406;28;20058;-77
2023/03/14 03:53:32;;;;;;;3.50;2.47;;;;;;;-3.57;69.71;99733.34;4988424;28;20045;-79
2023/03/14 03:55:58;;;;;;;4.32;2.92;;;;;;;-3.50;69.44;99735.88;4974540;28;20049;-77
2023/03/14 03:58:24;;;;;;;5.40;3.17;;;;;;;-3.41;69.28;99737.44;4952510;28;20447;-77
2023/03/14 04:00:50;;;;;;;2.50;2.30;;;;;;;-3.43;69.12;99737.47;4941435;28;20114;-77
2023/03/14 04:03:15;;;;;;;2.67;2.47;;;;;;;-3.37;68.73;99741.72;4970979;28;20069;-81
2023/03/14 04:05:42;;;;;;;5.03;2.55;;;;;;;-3.35;68.66;99745.16;4975025;28;20121;-77
2023/03/14 04:08:09;;;;;;;4.65;2.83;;;;;;;-3.26;68.84;99744.16;4958911;28;20129;-76
2023/03/14 04:10:35;;;;;;;2.92;2.28;;;;;;;-3.32;68.38;99745.13;4958956;28;20489;-79
2023/03/14 04:13:08;;;;;;;3.10;2.50;;;;;;;-3.22;68.04;99744.09;4975673;28;20441;-78
2023/03/14 04:15:35;;;;;;;5.65;3.17;;;;;;;-3.17;67.94;99747.47;4974727;28;20055;-78
2023/03/14 04:18:07;;;;;;;2.53;2.33;;;;;;;-3.21;67.73;99758.88;4975391;28;20051;-78
2023/03/14 04:20:34;;;;;;;3.88;2.70;;;;;;;-3.23;67.91;99763.28;4959068;28;20113;-78
2023/03/14 04:23:01;;;;;;;3.03;2.50;;;;;;;-3.33;67.71;99769.53;4962770;28;20520;-76
2023/03/14 04:25:27;;;;;;;2.53;2.30;;;;;;;-3.27;67.74;99774.69;4980374;28;20046;-75
2023/03/14 04:27:56;;;;;;;3.03;2.38;;;;;;;-3.36;67.75;99780.03;4958490;28;20042;-77
2023/03/14 04:30:25;;;;;;;7.57;2.47;;;;;;;-3.38;68.19;99781.84;4958999;28;20043;-78
2023/03/14 04:33:17;;;;;;;3.95;2.22;;;;;;;-3.32;68.08;99792.16;4972346;28;20046;-76
2023/03/14 04:35:52;;;;;;;3.50;2.70;;;;;;;-3.33;67.97;99789.59;4943382;28;20105;-76
2023/03/14 04:38:19;;;;;;;2.33;2.13;;;;;;;-3.37;68.24;99799.25;4974131;28;20057;-77
2023/03/14 04:40:46;;;;;;;4.15;2.92;;;;;;;-3.34;68.49;99801.81;4942052;28;20414;-76
2023/03/14 04:43:14;;;;;;;3.55;2.45;;;;;;;-3.26;68.62;99799.94;4941873;28;20652;-79
2023/03/14 04:45:50;;;;;;;2.13;1.92;;;;;;;-2.86;70.22;99801.81;4943535;28;20078;-77
2023/03/14 04:48:16;;;;;;;3.13;2.83;;;;;;;-2.81;67.99;99805.25;4973463;28;20042;-75
2023/03/14 04:50:42;;;;;;;6.13;3.67;;;;;;;-2.72;67.99;99815.53;4974097;28;20047;-77
2023/03/14 04:53:08;;;;;;;4.10;2.75;;;;;;;-2.71;66.91;99819.00;4973393;28;20498;-78
2023/03/14 04:55:35;;;;;;;6.22;3.25;;;;;;;-2.78;67.23;99820.88;4968426;28;20046;-77
2023/03/14 04:58:01;;;;;;;3.72;2.58;;;;;;;-2.73;66.91;99823.41;4989551;28;20054;-78
2023/03/14 05:00:31;;;;;;;3.85;3.40;;;;;;;-2.66;66.87;99824.19;4973927;28;20046;-77
2023/03/14 05:03:23;;;;;;;6.50;3.78;;;;;;;-2.41;67.25;99835.88;4991030;28;20585;-77
2023/03/14 05:06:13;;;;;;;4.93;3.70;;;;;;;-2.26;66.22;99846.06;4989439;28;20141;-76
2023/03/14 05:08:45;;;;;;;4.72;3.30;;;;;;;-2.27;65.78;99843.47;4989924;28;20068;-77
2023/03/14 05:11:25;;;;;;;7.78;3.78;;;;;;;-2.25;64.96;99853.03;4993447;28;20513;-77
2023/03/14 05:13:54;;;;;;;3.97;3.03;;;;;;;-2.29;65.67;99856.59;4993037;28;20057;-77
2023/03/14 05:16:38;;;;;;;4.38;3.40;;;;;;;-2.14;65.70;99849.31;4993479;28;20498;-77
2023/03/14 05:19:23;;;;;;;5.45;3.53;;;;;;;-1.90;65.06;99848.81;4993997;28;20438;-77
2023/03/14 05:21:58;;;;;;;6.80;3.65;;;;;;;-1.89;64.73;99854.91;4994734;28;20059;-78
2023/03/14 05:24:45;;;;;;;5.40;4.20;;;;;;;-1.91;64.22;99856.72;4982650;28;20141;-75
2023/03/14 05:27:29;;;;;;;3.88;2.92;;;;;;;-1.83;64.32;99860.03;4969792;28;20047;-77
2023/03/14 05:30:18;;;;;;;5.32;3.45;;;;;;;-1.74;63.84;99857.22;4964911;28;20058;-77
2023/03/14 05:33:01;;;;;;;5.97;3.38;;;;;;;-1.60;64.12;99856.91;4943684;28;20043;-76
2023/03/14 05:35:43;;;;;;;5.47;3.20;;;;;;;-1.71;63.21;99860.63;4975472;28;20173;-76
2023/03/14 05:38:25;;;;;;;4.80;3.45;;;;;;;-1.65;63.48;99861.41;4973690;28;20047;-76
2023/03/14 05:41:17;;;;;;;5.18;3.58;;;;;;;-1.35;63.91;99863.34;4974220;28;20042;-77
2023/03/14 05:43:58;;;;;;;4.32;3.60;;;;;;;-1.10;63.36;99873.22;4954820;28;20057;-77
2023/03/14 05:46:47;;;;;;;8.55;3.20;;;;;;;-1.06;62.25;99874.88;4961939;28;20052;-78
2023/03/14 05:49:28;;;;;;;5.88;4.18;;;;;;;-1.25;61.79;99877.06;4986527;28;20433;-78
2023/03/14 05:52:11;;;;;;;4.57;3.72;;;;;;;-1.34;62.11;99867.66;4977228;28;20046;-78
2023/03/14 05:54:55;;;;;;;7.65;4.07;;;;;;;-1.14;62.74;99871.56;4976999;28;20046;-77
2023/03/14 05:57:39;;;;;;;3.65;3.08;;;;;;;-1.12;62.31;99875.03;4979638;28;20071;-78
2023/03/14 06:00:40;;;;;;;3.88;2.78;;;;;;;-1.45;61.74;99887.16;4960828;28;20054;-77
2023/03/14 06:03:27;;;;;;;6.50;2.40;;;;;;;-1.33;62.83;99892.13;4978839;28;20096;-78
2023/03/14 06:05:53;;;;;;;4.47;2.50;;;;;;;-1.34;62.20;99878.16;4961981;28;20510;-78
2023/03/14 06:08:21;;;;;;;7.45;3.53;;;;;;;-1.13;62.12;99900.41;4953752;29;20525;-78
2023/03/14 06:10:47;;;;;;;3.50;2.97;;;;;;;-0.86;61.33;99888.38;4953906;29;20443;-78
2023/03/14 06:13:15;;;;;;;12.13;3.47;;;;;;;-0.51;61.30;99895.34;4946562;28;20394;-79
2023/03/14 06:15:42;;;;;;;4.70;3.05;;;;;;;-0.62;60.76;99891.28;4962870;28;20047;-80
2023/03/14 06:18:08;;;;;;;5.30;3.55;;;;;;;-0.71;60.58;99887.16;4959866;28;20038;-80
2023/03/14 06:20:39;;;;;;;5.57;3.53;;;;;;;-0.47;60.75;99890.88;4966968;28;20058;-78
2023/03/14 06:23:07;;;;;;;4.78;3.50;;;;;;;-0.59;59.58;99902.56;4991780;28;20072;-77
2023/03/14 06:25:35;;;;;;;2.38;2.17;;;;;;;-0.75;59.37;99896.84;4975850;28;20049;-77
2023/03/14 06:28:01;;;;;;;3.33;2.33;;;;;;;-1.09;59.41;99909.06;4976127;28;20050;-78
2023/03/14 06:30:27;;;;;;;13.18;3.63;;;;;;;-0.90;60.61;99909.47;4982645;28;20046;-76
2023/03/14 06:32:55;;;;;;;4.32;3.13;;;;;;;-0.54;59.99;99915.59;4975832;28;20180;-78
2023/03/14 06:35:23;;;;;;;4.03;3.22;;;;;;;-0.45;60.38;99923.25;5008764;28;20494;-77
2023/03/14 06:37:51;;;;;;;3.80;2.88;;;;;;;-0.45;58.65;99922.34;4975514;28;20505;-77
2023/03/14 06:40:18;;;;;;;2.20;1.95;;;;;;;-0.74;58.29;99937.94;4990286;28;20065;-78
2023/03/14 06:43:10;;;;;;;4.57;2.90;;;;;;;-0.80;59.46;99934.59;4985606;28;20124;-78
2023/03/14 06:45:38;;;;;;;5.40;2.80;;;;;;;-0.58;59.36;99942.81;4991941;28;20046;-79
2023/03/14 06:48:04;;;;;;;3.70;2.75;;;;;;;-0.54;59.02;99942.69;4991699;28;20042;-78
2023/03/14 06:50:42;;;;;;;7.20;3.08;;;;;;;-0.64;58.77;99935.97;4984832;28;20105;-78
2023/03/14 06:53:08;;;;;;;4.05;2.67;;;;;;;-0.55;58.07;99940.13;4970120;28;20413;-78
2023/03/14 06:55:37;;;;;;;5.18;2.75;;;;;;;-0.56;57.93;99938.41;4992204;28;20113;-78
2023/03/14 06:58:03;;;;;;;3.13;2.60;;;;;;;-0.35;58.36;99937.84;4975498;28;20501;-78
2023/03/14 07:00:37;;;;;;;6.18;3.20;;;;;;;-0.18;58.00;99950.53;4975823;28;20053;-77
2023/03/14 07:03:03;;;;;;;3.45;3.15;;;;;;;0.04;57.79;99948.22;4990688;28;20050;-78
2023/03/14 07:05:33;;;;;;;4.30;2.85;;;;;;;0.33;56.96;99955.25;4976432;28;20043;-78
2023/03/14 07:07:59;;;;;;;3.33;2.83;;;;;;;0.70;57.73;99956.81;4991693;28;20441;-77
2023/03/14 07:10:25;;;;;;;5.25;3.50;;;;;;;1.27;57.04;99957.69;4991941;28;20045;-77
2023/03/14 07:12:52;;;;;;;9.65;2.60;;;;;;;1.54;54.08;99961.19;4991745;28;20038;-76
2023/03/14 07:15:18;;;;;;;3.63;2.92;;;;;;;1.32;53.48;99967.19;4991685;28;20061;-76
2023/03/14 07:17:47;;;;;;;2.83;2.40;;;;;;;1.21;53.79;99969.31;4992031;28;20054;-77
2023/03/14 07:20:13;;;;;;;8.40;3.35;;;;;;;1.40;53.25;99964.31;4992733;28;20050;-78
2023/03/14 07:22:39;;;;;;;4.22;3.17;;;;;;;1.49;54.07;99977.16;4991609;28;20046;-79
2023/03/14 07:25:05;;;;;;;6.10;3.25;;;;;;;1.51;53.44;99975.34;4959398;28;20053;-77
2023/03/14 07:27:31;;;;;;;5.35;3.17;;;;;;;1.47;52.95;99976.38;4991318;28;20133;-76
2023/03/14 07:29:57;;;;;;;2.95;2.63;;;;;;;1.80;52.85;99984.91;4977261;28;20097;-77
2023/03/14 07:32:23;;;;;;;4.85;3.08;;;;;;;1.45;52.41;99983.44;4995381;28;20514;-77
2023/03/14 07:34:49;;;;;;;5.22;2.88;;;;;;;1.42;53.65;99984.38;4966216;28;20461;-77
2023/03/14 07:37:14;;;;;;;3.65;2.60;;;;;;;1.72;52.49;99996.63;4990881;28;20047;-78
2023/03/14 07:39:40;;;;;;;3.20;2.35;;;;;;;1.21;52.39;99999.13;4983640;28;20050;-79
2023/03/14 07:42:12;;;;;;;6.07;3.38;;;;;;;1.15;52.97;99996.66;4993475;28;20053;-78
2023/03/14 07:44:57;;;;;;;5.95;2.75;;;;;;;1.59;54.15;100007.56;4946753;28;20049;-77
2023/03/14 07:47:23;;;;;;;3.03;2.72;;;;;;;1.73;52.51;100009.75;4976869;28;20039;-77
2023/03/14 07:49:49;;;;;;;4.38;2.97;;;;;;;1.73;52.64;100012.41;4975485;28;20057;-79
2023/03/14 07:52:15;;;;;;;5.43;3.30;;;;;;;2.10;52.95;100005.84;4975795;28;20131;-78
2023/03/14 07:54:41;;;;;;;3.28;2.90;;;;;;;2.73;52.28;100027.34;4959121;28;20518;-76
2023/03/14 07:57:06;;;;;;;4.18;3.25;;;;;;;2.71;50.81;100029.19;4977153;28;20125;-76
2023/03/14 07:59:32;;;;;;;3.95;2.92;;;;;;;2.89;49.97;100032.00;4976658;28;20047;-80
2023/03/14 08:01:58;;;;;;;6.43;3.00;;;;;;;3.08;50.76;100042.72;4943177;28;20049;-78
2023/03/14 08:04:24;;;;;;;3.15;2.80;;;;;;;3.00;48.70;100034.22;4976790;28;20455;-79
2023/03/14 08:06:54;;;;;;;3.40;2.60;;;;;;;2.36;49.19;100055.91;4975079;28;20066;-78
2023/03/14 08:09:20;;;;;;;3.67;2.35;;;;;;;2.15;50.47;100054.91;4959547;28;20043;-78
2023/03/14 08:11:45;;;;;;;5.07;2.85;;;;;;;2.16;50.02;100053.97;4975590;28;20049;-85
2023/03/14 08:14:11;;;;;;;5.45;2.50;;;;;;;2.18;49.59;100049.53;4977487;28;20128;-77
2023/03/14 08:16:37;;;;;;;2.88;2.38;;;;;;;2.07;50.32;100056.94;4975920;28;20043;-79
2023/03/14 08:19:03;;;;;;;4.25;2.50;;;;;;;2.10;50.18;100062.09;4944041;28;20042;-79
2023/03/14 08:21:29;;;;;;;2.55;2.33;;;;;;;1.99;50.59;100074.78;4976911;28;20138;-81
2023/03/14 08:23:55;;;;;;;2.92;2.40;;;;;;;1.81;50.67;100075.41;4975827;28;20047;-80
2023/03/14 08:26:21;;;;;;;2.88;2.67;;;;;;;2.18;50.44;100073.28;4959090;28;20039;-77
2023/03/14 08:28:47;;;;;;;8.07;3.10;;;;;;;2.15;49.61;100068.09;4975917;28;20097;-79
2023/03/14 08:31:16;;;;;;;2.40;1.92;;;;;;;2.06;49.82;100084.22;4959802;28;20038;-79
2023/03/14 08:33:42;;;;;;;2.97;2.55;;;;;;;1.89;50.47;100062.84;4976457;28;20043;-81
2023/03/14 08:36:08;;;;;;;3.65;3.30;;;;;;;2.43;50.05;100075.91;4965722;28;20530;-78
2023/03/14 08:38:35;;;;;;;4.30;2.78;;;;;;;2.52;49.01;100087.03;4994771;28;20065;-80
2023/03/14 08:41:04;;;;;;;2.78;2.47;;;;;;;2.29;49.15;100082.56;5012676;28;20105;-79
2023/03/14 08:43:30;;;;;;;2.42;2.22;;;;;;;2.22;49.24;100095.13;4996887;28;20425;-78
2023/03/14 08:46:01;;;;;;;3.20;2.50;;;;;;;2.16;49.60;100098.81;5011517;28;20053;-77
2023/03/14 08:48:29;;;;;;;4.63;2.80;;;;;;;2.43;49.87;100080.31;4978102;28;20045;-77
2023/03/14 08:51:12;;;;;;;2.90;2.60;;;;;;;3.09;48.81;100092.00;4961698;28;20050;-79
2023/03/14 08:53:39;;;;;;;2.70;2.50;;;;;;;3.06;46.58;100104.47;4961821;28;20061;-78
2023/03/14 08:56:06;;;;;;;2.63;2.22;;;;;;;2.78;47.96;100108.09;4993811;28;20184;-76
2023/03/14 08:58:32;;;;;;;3.47;2.33;;;;;;;2.42;48.71;100110.28;4993929;28;20077;-78
2023/03/14 09:00:58;;;;;;;3.95;2.40;;;;;;;2.56;49.54;100105.38;5009784;28;20052;-78
2023/03/14 09:03:25;;;;;;;2.60;2.40;;;;;;;2.72;49.05;100104.84;4993705;28;20379;-77
2023/03/14 09:05:51;;;;;;;3.35;2.40;;;;;;;2.65;48.80;100112.97;4977990;28;20049;-79
2023/03/14 09:08:17;;;;;;;3.13;2.60;;;;;;;3.05;49.44;100103.63;4977833;28;20056;-79
2023/03/14 09:10:43;;;;;;;2.78;2.50;;;;;;;3.61;48.86;100103.22;4993747;28;20148;-79
2023/03/14 09:13:09;;;;;;;2.72;2.50;;;;;;;4.18;48.76;100108.88;4994663;28;20042;-80
2023/03/14 09:15:35;;;;;;;3.38;2.60;;;;;;;4.49;46.68;100118.16;4993868;28;20413;-77
2023/03/14 09:18:01;;;;;;;3.97;2.60;;;;;;;4.48;45.55;100125.25;5009903;28;20551;-77
2023/03/14 09:20:27;;;;;;;4.20;2.50;;;;;;;4.53;45.57;100125.91;4993409;28;20092;-78
2023/03/14 09:22:56;;;;;;;3.88;2.88;;;;;;;4.70;47.76;100127.84;4997489;28;20065;-81
2023/03/14 09:25:22;;;;;;;4.00;2.85;;;;;;;4.66;46.33;100106.81;4977544;28;20043;-80
2023/03/14 09:27:47;;;;;;;4.82;2.92;;;;;;;4.95;47.51;100130.25;4994475;28;20101;-78
2023/03/14 09:30:13;;;;;;;6.60;3.38;;;;;;;5.26;46.16;100134.16;4993283;28;20046;-77
2023/03/14 09:32:39;;;;;;;4.38;3.35;;;;;;;5.37;46.38;100139.84;4988956;28;20463;-78
2023/03/14 09:35:06;;;;;;;4.10;3.20;;;;;;;5.57;46.35;100137.16;4952723;28;20042;-79
2023/03/14 09:37:31;;;;;;;4.45;3.63;;;;;;;5.29;45.18;100136.69;4993930;28;20050;-78
2023/03/14 09:39:57;;;;;;;4.65;3.85;;;;;;;5.37;46.46;100131.88;4976791;28;20367;-79
2023/03/14 09:42:26;;;;;;;4.47;3.88;;;;;;;5.94;46.12;100143.41;4992362;28;20497;-79
2023/03/14 09:45:08;;;;;;;4.50;3.53;;;;;;;6.25;46.60;100144.56;4965187;28;20533;-78
2023/03/14 09:47:35;;;;;;;7.78;3.30;;;;;;;5.52;44.77;100156.84;4976323;28;20086;-78
2023/03/14 09:50:03;;;;;;;3.50;3.20;;;;;;;5.33;44.74;100148.88;4955433;29;20391;-78
2023/03/14 09:52:36;;;;;;;3.83;3.20;;;;;;;5.50;45.15;100150.75;4965045;28;20089;-77
2023/03/14 09:55:12;;;;;;;5.07;2.60;;;;;;;5.36;44.05;100152.25;4959134;28;20043;-79
2023/03/14 09:57:39;;;;;;;6.63;3.15;;;;;;;5.23;45.81;100151.09;4956549;28;20129;-78
2023/03/14 10:00:14;;;;;;;4.45;3.20;;;;;;;5.99;46.12;100156.44;4966937;28;20062;-80
2023/03/14 10:02:43;;;;;;;3.20;2.90;;;;;;;6.32;44.05;100164.56;4967282;28;20490;-80
2023/03/14 10:05:16;;;;;;;4.28;2.80;;;;;;;6.43;43.20;100161.34;4956557;28;20145;-79
2023/03/14 10:07:42;;;;;;;7.20;2.50;;;;;;;6.79;43.05;100158.63;4965690;28;20034;-79
2023/03/14 10:10:18;;;;;;;4.45;2.55;;;;;;;6.72;41.36;100152.75;4957826;28;20047;-80
2023/03/14 10:13:08;;;;;;;5.22;2.50;;;;;;;6.61;39.54;100159.56;4967108;28;20050;-78
2023/03/14 10:15:35;;;;;;;3.17;2.60;;;;;;;6.26;40.90;100159.53;4975850;28;20047;-81
2023/03/14 10:18:02;;;;;;;2.63;2.03;;;;;;;6.06;40.30;100165.81;4967235;28;20042;-82
2023/03/14 10:20:34;;;;;;;4.22;2.55;;;;;;;6.48;41.48;100168.16;4974931;28;20486;-78
2023/03/14 10:23:18;;;;;;;10.68;3.58;;;;;;;7.22;41.68;100173.22;4964362;28;20051;-79
2023/03/14 10:25:53;;;;;;;3.53;2.90;;;;;;;7.62;40.63;100181.69;4975123;28;20084;-80
2023/03/14 10:28:26;;;;;;;7.63;3.15;;;;;;;7.89;39.97;100178.47;4963439;28;20106;-78
2023/03/14 10:30:52;;;;;;;10.98;3.17;;;;;;;7.97;40.01;100181.53;4933090;28;20056;-78
2023/03/14 10:33:18;;;;;;;4.22;3.03;;;;;;;8.07;38.51;100179.25;4975017;28;20092;-80
2023/03/14 10:35:45;;;;;;;3.33;3.03;;;;;;;8.48;38.98;100199.06;4975766;28;20502;-81
2023/03/14 10:38:17;;;;;;;2.67;2.47;;;;;;;8.35;38.44;100197.16;4959098;28;20086;-79
2023/03/14 10:40:49;;;;;;;3.80;2.80;;;;;;;7.94;38.33;100203.91;4955752;28;20058;-80
2023/03/14 10:43:24;;;;;;;4.00;2.40;;;;;;;8.24;38.65;100206.66;4958770;28;20038;-79
2023/03/14 10:45:59;;;;;;;3.92;2.60;;;;;;;8.44;37.96;100205.53;4971574;28;20043;-80
2023/03/14 10:48:36;;;;;;;4.57;2.42;;;;;;;8.86;38.02;100214.63;4962551;28;20039;-80
2023/03/14 10:51:26;;;;;;;4.57;3.13;;;;;;;8.91;37.77;100223.25;4955590;28;20058;-79
2023/03/14 10:54:11;;;;;;;4.20;2.70;;;;;;;8.52;37.22;100237.91;4987503;28;20062;-80
2023/03/14 10:56:37;;;;;;;3.03;2.60;;;;;;;8.70;37.80;100240.50;4959196;28;20075;-79
2023/03/14 10:59:11;;;;;;;8.35;3.45;;;;;;;8.43;37.93;100250.94;4938134;29;20451;-80
2023/03/14 11:02:21;;;;;;;5.00;3.00;;;;;;;8.86;37.70;100249.28;4953713;29;20043;-79
2023/03/14 11:05:04;;;;;;;2.53;2.30;;;;;;;9.07;36.94;100246.34;4939445;29;20096;-78
2023/03/14 11:07:40;;;;;;;3.50;2.20;;;;;;;9.18;37.29;100257.22;4957159;29;20083;-79
2023/03/14 11:10:39;;;;;;;2.83;2.10;;;;;;;9.44;36.45;100259.19;4957738;28;20058;-79
2023/03/14 11:13:27;;;;;;;2.20;2.00;;;;;;;8.93;38.07;100237.31;4941476;29;20461;-80
2023/03/14 11:16:08;;;;;;;2.30;2.10;;;;;;;9.14;37.92;100242.31;4941063;29;20043;-79
2023/03/14 11:18:59;;;;;;;1.90;1.80;;;;;;;9.87;37.22;100240.50;4940888;29;20138;-78
2023/03/14 11:21:46;;;;;;;3.17;2.35;;;;;;;10.20;35.89;100250.00;4956458;29;20059;-78
2023/03/14 11:24:39;;;;;;;3.90;1.90;;;;;;;10.52;34.87;100247.94;4940388;28;20039;-77
2023/03/14 11:27:23;;;;;;;1.90;1.70;;;;;;;10.77;34.50;100257.91;4956626;29;20051;-79
2023/03/14 11:30:16;;;;;;;3.55;2.17;;;;;;;10.81;33.56;100269.25;4924897;29;20051;-78
2023/03/14 11:33:00;;;;;;;1.83;1.40;;;;;;;10.83;33.01;100262.84;4940609;29;20050;-79
2023/03/14 11:35:39;;;;;;;2.38;1.83;;;;;;;10.90;33.27;100264.13;4940065;29;20046;-79
2023/03/14 11:38:14;;;;;;;;;;;;;;;11.15;32.46;100262.50;4925369;29;20055;-79
2023/03/14 11:40:41;;;;;;;2.80;1.35;;;;;;;11.05;32.60;100256.03;4956612;29;20014;-78
2023/03/14 11:43:17;;;;;;;2.33;1.40;;;;;;;10.14;32.60;100253.91;4963598;28;20540;-78
2023/03/14 11:45:45;;;;;;;1.85;1.30;;;;;;;10.44;32.73;100250.25;4993792;28;20085;-79
2023/03/14 11:48:16;;;;;;;3.08;1.38;;;;;;;10.49;32.71;100268.66;4998519;28;20049;-80
2023/03/14 11:50:44;;;;;;;4.63;1.80;;;;;;;10.45;33.19;100274.25;4995460;28;20042;-78